Terminal Aerodrome Forecast
Issued by NWS Kansas City/Pleasant Hill, MO

Home | Current Version | Previous Version | Text Only | Print | Product List | Glossary On
Versions: 1 2 3 4 5 6 7 8 9 10 11 12 13
000
FTUS43 KEAX 302338
TAFMCI
TAF
KMCI 302338Z 3100/3124 11007KT P6SM SKC
     FM311100 13005KT 3SM BR SKC
     FM311500 16010KT P6SM FEW030
     FM311900 18012G16KT P6SM SCT050=

USA.gov is the U.S. government's official web portal to all federal, state and local government web resources and services.